Agargaon, India

4:48 PM IST on December 11, 2016 (GMT +0530)
Nagpur | | Change Station

Elev 1017 ft 21.09 °N, 79.06 °E | Updated 18 minutes ago

Partly Cloudy
Partly Cloudy
86 °F
Feels Like 86 °F
N
4
Wind Variable Wind from ESE

Today
High -- | Low -- °F
--% Chance of Precip.
Yesterday
High -- | Low -- °F
Precip. -- in
Pressure 29.86 in
Visibility 2.5 miles
Clouds
Dew Point 46 °F
Humidity 25%
Rainfall 0.00 in
Snow Depth Not available.
6:39 AM 5:31 PM
Waxing Gibbous, 91% visible
METAR VANP 111100Z 12003KT 4000 HZ NSC 30/08 Q1011 NOSIG
Pressure 29.86 in
Visibility 2.5 miles
Clouds
Dew Point 46 °F
Humidity 25%
Rainfall 0.00 in
Snow Depth Not available.
6:39 AM 5:31 PM
Waxing Gibbous, 91% visible
METAR VANP 111100Z 12003KT 4000 HZ NSC 30/08 Q1011 NOSIG

10-Day Weather Forecast

No radar image for this location.
×

Almanac

Astronomy

Dec. 11, 2016 Rise Set
Actual Time
Civil Twilight
Nautical Twilight
Astronomical Twilight
Moon
Length of Visible Light
Length of Day
Tomorrow will be .
, % of the Moon is Illuminated

Today's Extremes

Country Highs Country Lows

Community

WunderPhotos

Upload Photos

1,956,710 photos uploaded!

WunderBlog® & News

Nearby

Air Quality

  Air Quality AQ Index Pollutant
Not available.

Snow Depth

Station Depth Elevation

Earthquake Activity

City Distance Mag. Time & Date
Minimum magnitude displayed is 2.5.

Coastal Water Temperatures

Place Temperature

Stations

Nearby Weather Stations

Station Location Temp. Windchill Dew Point Humidity Wind Precip. Elev Updated Type